»·PEaware :: DAL917 KSLC-KABQ

DAL917 :: KSLC-KABQ

FLIGHT INFORMATION

Flight Status: Arrived
Operator:
Delta Air Lines
More flights by this operator :: More flights under this callsign
Pilot: Patricio R. (14780)
Aircraft: MCDONNELL-DOUGLAS MD-88
(MD88)
More flights by this aircraft type
Origin: KSLC Salt Lake City Intl
United States
Destination: KABQ Albuquerque Intl Sunport
United States
More flights between these airports :: More routes between these airports
Route: +RUGGD1 MTU JNC ROSEI LOWBO3
File this flight plan on PilotEdge
Remarks: PBN / A1B2 DOF / 180915 REG / N888SB EET / KZDV0022 KZAB0055 OPR / DAL PER / C RMK / TCAS SIMBRIEF
Altitude:
(Current/Filed)
35,000ft
Speed:
(Current/Filed)
450kts
Departed: 14-Sep-18 05:31 PM
Arrived: 14-Sep-18 06:53 PM
Distance/Time
Traveled:
428nm/1:22
Distance/Time
To Go:
Arrived

Flight Plot

Page will automatically refresh every two minutes.

Flight plan parsing failed; only flown route is shown


Map Options




Map Legend


Flown Route
Filed Route
Departure Airport
Arrival Airport
Navaid (VOR, NDB)
Fix

Horizontal Profiles

Position Reports

Time Latitude Longitude Heading Altitude Ground
Speed
14-Sep-18 17:08 40.789222 -111.984489 237 4234ft 0kts
14-Sep-18 17:09 40.789222 -111.984489 237 4233ft 0kts
14-Sep-18 17:10 40.789222 -111.984489 237 4233ft 0kts
14-Sep-18 17:11 40.789222 -111.984489 237 4233ft 0kts
14-Sep-18 17:12 40.789222 -111.984489 237 4233ft 0kts
14-Sep-18 17:13 40.789222 -111.984489 237 4233ft 0kts
14-Sep-18 17:14 40.789222 -111.984489 237 4233ft 0kts
14-Sep-18 17:15 40.789222 -111.984489 237 4233ft 0kts
14-Sep-18 17:16 40.789222 -111.984489 237 4233ft 0kts
14-Sep-18 17:17 40.789222 -111.984489 237 4233ft 0kts
14-Sep-18 17:18 40.789222 -111.984489 237 4233ft 0kts
14-Sep-18 17:19 40.789270 -111.983853 299 4233ft 2kts
14-Sep-18 17:20 40.788951 -111.983538 344 4233ft 0kts
14-Sep-18 17:21 40.788952 -111.983538 343 4233ft 0kts
14-Sep-18 17:22 40.788952 -111.983538 344 4233ft 0kts
14-Sep-18 17:23 40.788952 -111.983538 344 4233ft 0kts
14-Sep-18 17:24 40.788952 -111.983538 344 4233ft 0kts
14-Sep-18 17:25 40.789307 -111.983640 1 4233ft 5kts
14-Sep-18 17:26 40.789975 -111.980897 89 4233ft 8kts
14-Sep-18 17:27 40.790252 -111.978146 84 4233ft 10kts
14-Sep-18 17:28 40.787898 -111.976836 175 4233ft 12kts
14-Sep-18 17:29 40.784506 -111.976445 174 4233ft 12kts
14-Sep-18 17:30 40.781015 -111.976042 174 4233ft 13kts
14-Sep-18 17:31 40.776516 -111.975024 175 4233ft 16kts
14-Sep-18 17:32 40.775186 -111.973307 17 4233ft 14kts
14-Sep-18 17:33 40.795555 -111.975531 352 4235ft 152kts
14-Sep-18 17:34 40.841211 -111.979313 354 5698ft 171kts
14-Sep-18 17:35 40.895982 -111.982012 353 6739ft 232kts
14-Sep-18 17:36 40.965748 -111.990533 351 8620ft 268kts
14-Sep-18 17:37 41.045289 -111.999942 359 10323ft 310kts
14-Sep-18 17:38 41.116229 -111.935460 57 12378ft 330kts
14-Sep-18 17:39 41.138223 -111.821260 105 14452ft 325kts
14-Sep-18 17:40 41.094831 -111.721882 149 16486ft 310kts
14-Sep-18 17:41 41.018761 -111.669526 155 18382ft 315kts
14-Sep-18 17:42 40.942274 -111.609238 153 20103ft 325kts
14-Sep-18 17:43 40.865379 -111.546832 153 21692ft 333kts
14-Sep-18 17:44 40.785956 -111.482141 154 23179ft 340kts
14-Sep-18 17:45 40.705100 -111.414916 146 24511ft 353kts
14-Sep-18 17:46 40.659600 -111.294571 116 25670ft 384kts
14-Sep-18 17:47 40.621640 -111.162266 118 26750ft 389kts
14-Sep-18 17:48 40.582250 -111.028469 117 27738ft 397kts
14-Sep-18 17:49 40.542250 -110.892250 116 28685ft 403kts
14-Sep-18 17:50 40.501680 -110.753431 116 29557ft 409kts
14-Sep-18 17:51 40.460812 -110.613108 115 30355ft 415kts
14-Sep-18 17:52 40.417591 -110.472652 126 31078ft 410kts
14-Sep-18 17:53 40.340688 -110.369406 142 31988ft 397kts
14-Sep-18 17:54 40.261320 -110.269650 142 32846ft 396kts
14-Sep-18 17:55 40.181566 -110.168367 142 33093ft 409kts
14-Sep-18 17:56 40.097466 -110.063894 143 33098ft 426kts
14-Sep-18 17:57 40.009539 -109.956870 142 33095ft 440kts
14-Sep-18 17:58 39.919369 -109.846985 142 33078ft 447kts
14-Sep-18 17:59 39.829167 -109.736913 142 33086ft 444kts
14-Sep-18 18:00 39.739407 -109.627261 142 33086ft 444kts
14-Sep-18 18:01 39.664657 -109.535845 142 33086ft 444kts
14-Sep-18 18:02 39.559842 -109.407508 142 33064ft 444kts
14-Sep-18 18:03 39.472414 -109.300268 142 33052ft 423kts
14-Sep-18 18:04 39.387959 -109.196647 142 33078ft 421kts
14-Sep-18 18:05 39.317004 -109.109514 142 33080ft 424kts
14-Sep-18 18:06 39.217200 -108.986770 141 33080ft 428kts
14-Sep-18 18:07 39.145590 -108.898568 140 33081ft 428kts
14-Sep-18 18:08 39.057895 -108.795558 152 33082ft 421kts
14-Sep-18 18:09 38.950331 -108.745897 165 33082ft 413kts
14-Sep-18 18:10 38.840835 -108.701573 164 33084ft 415kts
14-Sep-18 18:11 38.730927 -108.656575 164 33083ft 415kts
14-Sep-18 18:12 38.621255 -108.611658 164 33040ft 415kts
14-Sep-18 18:13 38.511701 -108.566776 163 33001ft 415kts
14-Sep-18 18:14 38.401906 -108.521789 163 33005ft 418kts
14-Sep-18 18:15 38.289839 -108.475857 163 33002ft 427kts
14-Sep-18 18:16 38.177385 -108.429751 163 33024ft 426kts
14-Sep-18 18:17 38.064495 -108.383458 163 33162ft 426kts
14-Sep-18 18:18 37.954594 -108.338383 164 33244ft 426kts
14-Sep-18 18:19 37.841759 -108.292096 164 33356ft 432kts
14-Sep-18 18:20 37.726838 -108.244940 164 33427ft 438kts
14-Sep-18 18:21 37.611104 -108.197436 164 33438ft 437kts
14-Sep-18 18:22 37.496083 -108.150218 163 33318ft 437kts
14-Sep-18 18:23 37.380545 -108.102773 163 33230ft 437kts
14-Sep-18 18:24 37.265389 -108.055479 163 33241ft 437kts
14-Sep-18 18:25 37.149950 -108.008057 163 33249ft 437kts
14-Sep-18 18:26 37.034818 -107.960785 162 33255ft 437kts
14-Sep-18 18:27 36.919782 -107.913490 162 33244ft 438kts
14-Sep-18 18:28 36.806382 -107.866864 162 33212ft 439kts
14-Sep-18 18:29 36.690826 -107.819355 162 33180ft 440kts
14-Sep-18 18:30 36.574850 -107.771666 162 33146ft 440kts
14-Sep-18 18:31 36.458875 -107.723968 161 33159ft 440kts
14-Sep-18 18:32 36.345147 -107.677179 161 33116ft 419kts
14-Sep-18 18:33 36.237286 -107.632800 161 31703ft 411kts
14-Sep-18 18:34 36.128158 -107.587869 162 29685ft 415kts
14-Sep-18 18:35 36.018065 -107.551909 166 27570ft 405kts
14-Sep-18 18:36 35.910820 -107.517595 165 25589ft 394kts
14-Sep-18 18:37 35.806981 -107.483533 165 23671ft 382kts
14-Sep-18 18:38 35.706011 -107.450781 166 21796ft 372kts
14-Sep-18 18:39 35.608089 -107.419515 166 20285ft 352kts
14-Sep-18 18:40 35.517419 -107.390560 166 19070ft 331kts
14-Sep-18 18:41 35.430177 -107.360448 153 17544ft 324kts
14-Sep-18 18:42 35.376364 -107.274646 122 16051ft 320kts
14-Sep-18 18:43 35.330143 -107.182904 123 14565ft 314kts
14-Sep-18 18:44 35.283609 -107.094038 131 13109ft 307kts
14-Sep-18 18:45 35.222383 -107.023546 139 11674ft 300kts
14-Sep-18 18:46 35.146733 -106.996740 178 10212ft 290kts
14-Sep-18 18:47 35.066792 -106.991849 178 8872ft 285kts
14-Sep-18 18:48 34.994181 -106.985613 153 8783ft 240kts
14-Sep-18 18:49 34.990845 -106.922833 68 8850ft 197kts
14-Sep-18 18:50 35.010158 -106.860301 68 8869ft 195kts
14-Sep-18 18:51 35.028632 -106.800087 68 7935ft 186kts
14-Sep-18 18:52 35.044585 -106.747660 73 6886ft 153kts
14-Sep-18 18:53 35.044824 -106.695606 89 6396ft 153kts
14-Sep-18 18:54 35.044364 -106.643465 88 5730ft 154kts
14-Sep-18 18:55 35.044257 -106.603110 83 5324ft 26kts
14-Sep-18 18:56 35.045771 -106.606178 270 5321ft 15kts
14-Sep-18 18:57 35.045809 -106.611522 270 5321ft 16kts
14-Sep-18 18:58 35.045567 -106.617312 270 5321ft 18kts
14-Sep-18 18:59 35.047384 -106.619525 22 5321ft 4kts
14-Sep-18 19:00 35.047486 -106.618839 108 5321ft 0kts

Navigation Log

Ident Type
Flight plan parsing failed, navigation log unavailable